Orbital elements of COSMOS 2251 DEB
| Launched | 15 June 1993 |
| Flight ended | – |
| Launch site | Plesetsk Missile and Space Complex, Russia |
| Owner | Commonwealth of Independent States (former USSR) |
| NORAD ID | 33975 |
| Date fetched |
Epoch osculation |
Inc. [°] |
Ecc. | RA asc node [hr] |
Arg Peri. [°] |
Mean anom [°] |
Mean motion [rev/day] |
Abs. mag |
| Date fetched |
Epoch osculation |
Inc. [°] |
Ecc. | RA asc node [hr] |
Arg Peri. [°] |
Mean anom [°] |
Mean motion [rev/day] |
Abs. mag |
| 2026 May 08 17:57 | 2026 May 05 06:54:52 | 73.8012 | 0.01917 | 12.8046 | 299.8295 | 58.3902 | 14.00745 | – |
| 2026 May 07 17:58 | 2026 May 05 06:54:52 | 73.8012 | 0.01917 | 12.8046 | 299.8295 | 58.3902 | 14.00745 | – |
| 2026 May 06 17:57 | 2026 May 05 06:54:52 | 73.8012 | 0.01917 | 12.8046 | 299.8295 | 58.3902 | 14.00745 | – |
| 2026 May 05 17:57 | 2026 May 05 06:54:52 | 73.8012 | 0.01917 | 12.8046 | 299.8295 | 58.3902 | 14.00745 | – |
| 2026 May 04 17:57 | 2026 Apr 30 13:47:21 | 73.8015 | 0.01915 | 13.3571 | 308.9066 | 58.3902 | 14.00745 | – |
| 2026 May 03 17:57 | 2026 Apr 30 13:47:21 | 73.8015 | 0.01915 | 13.3571 | 308.9066 | 58.3902 | 14.00745 | – |
| 2026 May 02 17:57 | 2026 Apr 30 13:47:21 | 73.8015 | 0.01915 | 13.3571 | 308.9066 | 58.3902 | 14.00745 | – |
| 2026 May 01 17:56 | 2026 Apr 30 13:47:21 | 73.8015 | 0.01915 | 13.3571 | 308.9066 | 58.3902 | 14.00745 | – |
| 2026 Apr 30 17:56 | 2026 Apr 30 13:47:21 | 73.8015 | 0.01915 | 13.3571 | 308.9066 | 58.3902 | 14.00745 | – |
| 2026 Apr 29 17:57 | 2026 Apr 24 05:14:29 | 73.8018 | 0.01912 | 14.1022 | 321.1890 | 58.3902 | 14.00745 | – |
| 2026 Apr 28 17:56 | 2026 Apr 24 05:14:29 | 73.8018 | 0.01912 | 14.1022 | 321.1890 | 58.3902 | 14.00745 | – |
| 2026 Apr 27 17:58 | 2026 Apr 24 05:14:29 | 73.8018 | 0.01912 | 14.1022 | 321.1890 | 58.3902 | 14.00745 | – |
| 2026 Apr 26 17:58 | 2026 Apr 24 05:14:29 | 73.8018 | 0.01912 | 14.1022 | 321.1890 | 58.3902 | 14.00745 | – |
| 2026 Apr 25 17:58 | 2026 Apr 24 05:14:29 | 73.8018 | 0.01912 | 14.1022 | 321.1890 | 58.3902 | 14.00745 | – |
| 2026 Apr 24 17:59 | 2026 Apr 24 05:14:29 | 73.8018 | 0.01912 | 14.1022 | 321.1890 | 58.3902 | 14.00745 | – |
| 2026 Apr 23 17:57 | 2026 Apr 19 06:58:24 | 73.8013 | 0.01910 | 14.6799 | 330.7195 | 58.3902 | 14.00745 | – |
| 2026 Apr 22 17:57 | 2026 Apr 19 06:58:24 | 73.8013 | 0.01910 | 14.6799 | 330.7195 | 58.3902 | 14.00745 | – |
| 2026 Apr 21 17:57 | 2026 Apr 19 06:58:24 | 73.8013 | 0.01910 | 14.6799 | 330.7195 | 58.3902 | 14.00745 | – |
| 2026 Apr 20 17:57 | 2026 Apr 19 06:58:24 | 73.8013 | 0.01910 | 14.6799 | 330.7195 | 58.3902 | 14.00745 | – |
| 2026 Apr 19 17:58 | 2026 Apr 19 06:58:24 | 73.8013 | 0.01910 | 14.6799 | 330.7195 | 58.3902 | 14.00745 | – |
| 2026 Apr 18 17:56 | 2026 Apr 12 18:59:48 | 73.8008 | 0.01908 | 15.4417 | 343.2829 | 58.3902 | 14.00745 | – |
| 2026 Apr 16 17:57 | 2026 Apr 12 18:59:48 | 73.8008 | 0.01908 | 15.4417 | 343.2829 | 58.3902 | 14.00745 | – |
| 2026 Apr 14 17:57 | 2026 Apr 12 18:59:48 | 73.8008 | 0.01908 | 15.4417 | 343.2829 | 58.3902 | 14.00745 | – |
| 2026 Apr 13 17:57 | 2026 Apr 12 18:59:48 | 73.8008 | 0.01908 | 15.4417 | 343.2829 | 58.3902 | 14.00745 | – |
| 2026 Apr 12 17:57 | 2026 Apr 08 15:34:57 | 73.8002 | 0.01906 | 15.9273 | 351.2984 | 58.3902 | 14.00745 | – |
| 2026 Apr 11 17:57 | 2026 Apr 08 15:34:57 | 73.8002 | 0.01906 | 15.9273 | 351.2984 | 58.3902 | 14.00745 | – |